sensor_id;sensor_type;location;lat;lon;timestamp;pressure;altitude;pressure_sealevel;temperature;humidity
83896;BME280;74045;42.812;74.638;2023-11-21T00:01:19;91104.50;;;6.65;65.61
83896;BME280;74045;42.812;74.638;2023-11-21T00:03:45;91034.81;;;6.14;65.67
83896;BME280;74045;42.812;74.638;2023-11-21T00:06:11;91099.22;;;6.58;64.59
83896;BME280;74045;42.812;74.638;2023-11-21T00:08:37;91101.84;;;6.58;65.54
83896;BME280;74045;42.812;74.638;2023-11-21T00:11:03;90990.56;;;5.83;63.44
83896;BME280;74045;42.812;74.638;2023-11-21T00:13:31;91100.00;;;6.58;64.34
83896;BME280;74045;42.812;74.638;2023-11-21T00:15:58;91084.25;;;6.47;62.78
83896;BME280;74045;42.812;74.638;2023-11-21T00:18:24;91073.75;;;6.40;64.62
83896;BME280;74045;42.812;74.638;2023-11-21T00:20:50;91103.75;;;6.57;62.19
83896;BME280;74045;42.812;74.638;2023-11-21T00:23:15;91094.75;;;6.58;63.00
83896;BME280;74045;42.812;74.638;2023-11-21T00:25:41;91095.50;;;6.69;63.72
83896;BME280;74045;42.812;74.638;2023-11-21T00:28:07;91098.50;;;6.75;62.82
83896;BME280;74045;42.812;74.638;2023-11-21T00:30:33;91078.25;;;6.61;61.81
83896;BME280;74045;42.812;74.638;2023-11-21T00:32:58;91099.25;;;6.76;61.54
83896;BME280;74045;42.812;74.638;2023-11-21T00:35:24;91080.88;;;6.65;62.04
83896;BME280;74045;42.812;74.638;2023-11-21T00:37:50;91097.72;;;6.82;61.37
83896;BME280;74045;42.812;74.638;2023-11-21T00:40:16;91077.09;;;6.73;60.67
83896;BME280;74045;42.812;74.638;2023-11-21T00:42:44;91073.34;;;6.78;59.73
83896;BME280;74045;42.812;74.638;2023-11-21T00:45:11;91095.81;;;7.00;59.25
83896;BME280;74045;42.812;74.638;2023-11-21T00:47:37;91076.69;;;6.89;60.65
83896;BME280;74045;42.812;74.638;2023-11-21T00:50:04;91084.16;;;7.08;59.12
83896;BME280;74045;42.812;74.638;2023-11-21T00:52:32;91056.41;;;6.97;58.86
83896;BME280;74045;42.812;74.638;2023-11-21T00:54:58;91059.03;;;7.07;58.76
83896;BME280;74045;42.812;74.638;2023-11-21T00:57:26;91084.84;;;7.27;58.94
83896;BME280;74045;42.812;74.638;2023-11-21T00:59:52;91090.09;;;7.34;59.45
83896;BME280;74045;42.812;74.638;2023-11-21T01:02:18;91078.81;;;7.37;58.64
83896;BME280;74045;42.812;74.638;2023-11-21T01:04:43;91084.81;;;7.41;58.58
83896;BME280;74045;42.812;74.638;2023-11-21T01:07:09;91054.47;;;7.26;59.08
83896;BME280;74045;42.812;74.638;2023-11-21T01:09:35;91079.19;;;7.39;60.01
83896;BME280;74045;42.812;74.638;2023-11-21T01:12:01;91064.22;;;7.29;60.44
83896;BME280;74045;42.812;74.638;2023-11-21T01:14:27;91076.97;;;7.30;59.12
83896;BME280;74045;42.812;74.638;2023-11-21T01:16:53;91016.69;;;6.87;59.10
83896;BME280;74045;42.812;74.638;2023-11-21T01:19:19;91014.09;;;6.77;59.79
83896;BME280;74045;42.812;74.638;2023-11-21T01:21:44;91081.91;;;7.17;59.74
83896;BME280;74045;42.812;74.638;2023-11-21T01:24:10;91072.16;;;7.14;59.15
83896;BME280;74045;42.812;74.638;2023-11-21T01:26:36;91088.66;;;7.11;59.93
83896;BME280;74045;42.812;74.638;2023-11-21T01:29:02;91071.44;;;7.03;61.07
83896;BME280;74045;42.812;74.638;2023-11-21T01:31:27;91087.19;;;7.03;60.40
83896;BME280;74045;42.812;74.638;2023-11-21T01:33:55;91084.56;;;7.00;60.76
83896;BME280;74045;42.812;74.638;2023-11-21T01:36:21;91084.94;;;6.94;61.17
83896;BME280;74045;42.812;74.638;2023-11-21T01:38:47;91083.47;;;6.90;60.45
83896;BME280;74045;42.812;74.638;2023-11-21T01:41:16;91088.72;;;6.86;60.61
83896;BME280;74045;42.812;74.638;2023-11-21T01:43:41;91079.72;;;6.84;61.08
83896;BME280;74045;42.812;74.638;2023-11-21T01:46:08;90968.50;;;6.06;60.46
83896;BME280;74045;42.812;74.638;2023-11-21T01:48:34;91075.22;;;6.84;60.23
83896;BME280;74045;42.812;74.638;2023-11-21T01:51:01;90983.06;;;6.28;59.42
83896;BME280;74045;42.812;74.638;2023-11-21T01:53:27;91067.31;;;6.95;60.45
83896;BME280;74045;42.812;74.638;2023-11-21T01:55:54;91080.06;;;6.93;59.43
83896;BME280;74045;42.812;74.638;2023-11-21T01:58:21;91070.69;;;6.95;58.97
83896;BME280;74045;42.812;74.638;2023-11-21T02:00:47;91075.94;;;6.95;58.22
83896;BME280;74045;42.812;74.638;2023-11-21T02:03:16;90999.19;;;6.41;58.00
83896;BME280;74045;42.812;74.638;2023-11-21T02:05:42;91075.19;;;6.99;58.04
83896;BME280;74045;42.812;74.638;2023-11-21T02:08:08;91076.28;;;7.05;57.96
83896;BME280;74045;42.812;74.638;2023-11-21T02:10:35;91072.13;;;7.11;58.25
83896;BME280;74045;42.812;74.638;2023-11-21T02:13:02;90995.00;;;6.62;58.09
83896;BME280;74045;42.812;74.638;2023-11-21T02:15:29;91066.84;;;7.22;57.44
83896;BME280;74045;42.812;74.638;2023-11-21T02:17:55;91063.84;;;7.20;56.97
83896;BME280;74045;42.812;74.638;2023-11-21T02:20:21;91061.22;;;7.27;56.56
83896;BME280;74045;42.812;74.638;2023-11-21T02:22:54;91075.44;;;7.40;56.76
83896;BME280;74045;42.812;74.638;2023-11-21T02:25:31;91009.91;;;7.01;56.12
83896;BME280;74045;42.812;74.638;2023-11-21T02:27:58;91058.88;;;7.47;56.19
83896;BME280;74045;42.812;74.638;2023-11-21T02:30:24;91069.72;;;7.59;55.82
83896;BME280;74045;42.812;74.638;2023-11-21T02:32:51;91056.53;;;7.67;55.59
83896;BME280;74045;42.812;74.638;2023-11-21T02:35:20;91065.13;;;7.74;55.01
83896;BME280;74045;42.812;74.638;2023-11-21T02:37:49;91053.13;;;7.70;55.10
83896;BME280;74045;42.812;74.638;2023-11-21T02:40:15;91069.94;;;7.90;54.67
83896;BME280;74045;42.812;74.638;2023-11-21T02:42:46;91060.50;;;7.96;54.04
83896;BME280;74045;42.812;74.638;2023-11-21T02:45:13;90991.22;;;7.58;53.49
83896;BME280;74045;42.812;74.638;2023-11-21T02:47:42;91043.88;;;8.06;53.61
83896;BME280;74045;42.812;74.638;2023-11-21T02:50:08;90957.81;;;7.58;54.95
83896;BME280;74045;42.812;74.638;2023-11-21T02:52:35;90981.72;;;7.75;54.01
83896;BME280;74045;42.812;74.638;2023-11-21T02:55:01;91052.75;;;8.30;54.06
83896;BME280;74045;42.812;74.638;2023-11-21T02:57:27;91048.97;;;8.32;54.14
83896;BME280;74045;42.812;74.638;2023-11-21T02:59:54;90985.44;;;7.84;53.92
83896;BME280;74045;42.812;74.638;2023-11-21T03:02:20;91064.69;;;8.42;53.95
83896;BME280;74045;42.812;74.638;2023-11-21T03:04:46;91066.56;;;8.45;53.89
83896;BME280;74045;42.812;74.638;2023-11-21T03:07:13;90992.03;;;8.03;53.92
83896;BME280;74045;42.812;74.638;2023-11-21T03:09:39;91061.63;;;8.55;54.11
83896;BME280;74045;42.812;74.638;2023-11-21T03:12:05;91061.56;;;8.58;53.83
83896;BME280;74045;42.812;74.638;2023-11-21T03:14:31;91055.56;;;8.54;53.81
83896;BME280;74045;42.812;74.638;2023-11-21T03:16:57;91054.41;;;8.59;53.99
83896;BME280;74045;42.812;74.638;2023-11-21T03:19:22;91062.59;;;8.68;53.42
83896;BME280;74045;42.812;74.638;2023-11-21T03:21:49;91058.03;;;8.76;53.73
83896;BME280;74045;42.812;74.638;2023-11-21T03:24:14;91046.69;;;8.82;53.35
83896;BME280;74045;42.812;74.638;2023-11-21T03:26:44;91036.44;;;8.91;52.14
83896;BME280;74045;42.812;74.638;2023-11-21T03:29:10;91053.88;;;9.16;52.40
83896;BME280;74045;42.812;74.638;2023-11-21T03:31:36;90977.44;;;8.82;52.27
83896;BME280;74045;42.812;74.638;2023-11-21T03:34:01;91047.22;;;9.38;52.01
83896;BME280;74045;42.812;74.638;2023-11-21T03:36:27;91045.59;;;9.48;51.84
83896;BME280;74045;42.812;74.638;2023-11-21T03:38:53;91039.03;;;9.60;51.59
83896;BME280;74045;42.812;74.638;2023-11-21T03:41:19;90957.88;;;9.17;51.32
83896;BME280;74045;42.812;74.638;2023-11-21T03:43:44;90834.59;;;8.40;50.82
83896;BME280;74045;42.812;74.638;2023-11-21T03:46:10;91032.34;;;9.82;50.89
83896;BME280;74045;42.812;74.638;2023-11-21T03:48:36;91032.91;;;9.97;50.78
83896;BME280;74045;42.812;74.638;2023-11-21T03:51:01;90961.78;;;9.63;50.45
83896;BME280;74045;42.812;74.638;2023-11-21T03:53:27;91025.09;;;10.17;50.40
83896;BME280;74045;42.812;74.638;2023-11-21T03:55:53;91002.44;;;10.16;50.40
83896;BME280;74045;42.812;74.638;2023-11-21T03:58:19;90991.00;;;10.26;50.10
83896;BME280;74045;42.812;74.638;2023-11-21T04:00:46;91012.63;;;10.45;50.13
83896;BME280;74045;42.812;74.638;2023-11-21T04:03:12;90999.63;;;10.54;50.41
83896;BME280;74045;42.812;74.638;2023-11-21T04:05:38;91004.00;;;10.64;50.28
83896;BME280;74045;42.812;74.638;2023-11-21T04:08:04;91007.66;;;10.70;49.86
83896;BME280;74045;42.812;74.638;2023-11-21T04:10:30;91000.28;;;10.82;50.18
83896;BME280;74045;42.812;74.638;2023-11-21T04:12:55;90933.72;;;10.47;50.23
83896;BME280;74045;42.812;74.638;2023-11-21T04:15:21;90993.13;;;11.02;49.80
83896;BME280;74045;42.812;74.638;2023-11-21T04:17:47;90939.56;;;10.78;50.25
83896;BME280;74045;42.812;74.638;2023-11-21T04:20:13;90988.03;;;11.31;49.18
83896;BME280;74045;42.812;74.638;2023-11-21T04:22:42;90980.22;;;11.44;48.92
83896;BME280;74045;42.812;74.638;2023-11-21T04:25:13;90981.69;;;11.65;48.65
83896;BME280;74045;42.812;74.638;2023-11-21T04:27:40;90979.00;;;11.85;48.54
83896;BME280;74045;42.812;74.638;2023-11-21T04:30:06;90980.53;;;12.02;47.86
83896;BME280;74045;42.812;74.638;2023-11-21T04:32:33;90965.16;;;12.14;47.21
83896;BME280;74045;42.812;74.638;2023-11-21T04:34:59;90973.72;;;12.34;46.85
83896;BME280;74045;42.812;74.638;2023-11-21T04:37:24;90901.09;;;12.02;46.47
83896;BME280;74045;42.812;74.638;2023-11-21T04:39:50;90963.78;;;12.54;46.72
83896;BME280;74045;42.812;74.638;2023-11-21T04:42:16;90962.44;;;12.63;46.61
83896;BME280;74045;42.812;74.638;2023-11-21T04:44:41;90963.44;;;12.69;46.47
83896;BME280;74045;42.812;74.638;2023-11-21T04:47:07;90873.84;;;12.18;46.13
83896;BME280;74045;42.812;74.638;2023-11-21T04:49:33;90945.19;;;12.71;46.03
83896;BME280;74045;42.812;74.638;2023-11-21T04:51:59;90959.38;;;12.93;46.18
83896;BME280;74045;42.812;74.638;2023-11-21T04:54:25;90945.63;;;12.98;45.72
83896;BME280;74045;42.812;74.638;2023-11-21T04:56:50;90940.44;;;13.08;46.20
83896;BME280;74045;42.812;74.638;2023-11-21T04:59:16;90944.72;;;13.18;45.88
83896;BME280;74045;42.812;74.638;2023-11-21T05:01:42;90947.19;;;13.25;45.18
83896;BME280;74045;42.812;74.638;2023-11-21T05:04:07;90883.03;;;12.88;44.99
83896;BME280;74045;42.812;74.638;2023-11-21T05:06:34;90948.28;;;13.40;45.25
83896;BME280;74045;42.812;74.638;2023-11-21T05:09:00;90943.09;;;13.50;44.65
83896;BME280;74045;42.812;74.638;2023-11-21T05:11:26;90937.59;;;13.57;44.54
83896;BME280;74045;42.812;74.638;2023-11-21T05:13:52;90933.25;;;13.63;45.49
83896;BME280;74045;42.812;74.638;2023-11-21T05:16:19;90938.03;;;13.68;45.18
83896;BME280;74045;42.812;74.638;2023-11-21T05:18:45;90935.59;;;13.74;45.31
83896;BME280;74045;42.812;74.638;2023-11-21T05:21:11;90885.47;;;13.50;44.96
83896;BME280;74045;42.812;74.638;2023-11-21T05:23:37;90931.44;;;13.85;44.75
83896;BME280;74045;42.812;74.638;2023-11-21T05:26:03;90850.00;;;13.44;44.88
83896;BME280;74045;42.812;74.638;2023-11-21T05:28:29;90933.13;;;14.05;45.00
83896;BME280;74045;42.812;74.638;2023-11-21T05:30:54;90931.84;;;14.09;45.23
83896;BME280;74045;42.812;74.638;2023-11-21T05:33:21;90928.66;;;14.15;45.43
83896;BME280;74045;42.812;74.638;2023-11-21T05:35:46;90918.78;;;14.15;45.86
83896;BME280;74045;42.812;74.638;2023-11-21T05:38:32;90911.44;;;14.19;46.25
83896;BME280;74045;42.812;74.638;2023-11-21T05:40:58;90902.19;;;14.11;46.77
83896;BME280;74045;42.812;74.638;2023-11-21T05:43:24;90891.81;;;14.04;46.11
83896;BME280;74045;42.812;74.638;2023-11-21T05:45:49;90899.34;;;14.18;46.24
83896;BME280;74045;42.812;74.638;2023-11-21T05:48:15;90907.63;;;14.20;46.71
83896;BME280;74045;42.812;74.638;2023-11-21T05:50:41;90892.63;;;14.14;46.66
83896;BME280;74045;42.812;74.638;2023-11-21T05:53:06;90886.88;;;14.28;46.96
83896;BME280;74045;42.812;74.638;2023-11-21T05:55:32;90888.25;;;14.32;46.64
83896;BME280;74045;42.812;74.638;2023-11-21T05:57:58;90888.75;;;14.40;46.87
83896;BME280;74045;42.812;74.638;2023-11-21T06:00:25;90879.47;;;14.45;46.75
83896;BME280;74045;42.812;74.638;2023-11-21T06:02:52;90890.22;;;14.54;46.33
83896;BME280;74045;42.812;74.638;2023-11-21T06:05:19;90883.19;;;14.60;46.27
83896;BME280;74045;42.812;74.638;2023-11-21T06:07:46;90884.75;;;14.70;46.60
83896;BME280;74045;42.812;74.638;2023-11-21T06:10:12;90876.09;;;14.79;46.82
83896;BME280;74045;42.812;74.638;2023-11-21T06:12:40;90873.63;;;14.85;46.80
83896;BME280;74045;42.812;74.638;2023-11-21T06:15:08;90877.63;;;14.89;47.63
83896;BME280;74045;42.812;74.638;2023-11-21T06:17:35;90806.03;;;14.51;47.75
83896;BME280;74045;42.812;74.638;2023-11-21T06:20:03;90874.72;;;14.96;48.00
83896;BME280;74045;42.812;74.638;2023-11-21T06:22:35;90871.19;;;14.99;47.75
83896;BME280;74045;42.812;74.638;2023-11-21T06:25:01;90843.78;;;14.90;47.60
83896;BME280;74045;42.812;74.638;2023-11-21T06:27:28;90854.56;;;15.08;48.16
83896;BME280;74045;42.812;74.638;2023-11-21T06:29:55;90850.41;;;15.07;47.41
83896;BME280;74045;42.812;74.638;2023-11-21T06:32:20;90851.38;;;15.22;47.82
83896;BME280;74045;42.812;74.638;2023-11-21T06:34:48;90842.50;;;15.26;48.05
83896;BME280;74045;42.812;74.638;2023-11-21T06:37:15;90822.31;;;15.06;48.14
83896;BME280;74045;42.812;74.638;2023-11-21T06:39:42;90834.69;;;15.31;47.67
83896;BME280;74045;42.812;74.638;2023-11-21T06:42:08;90794.28;;;15.14;46.79
83896;BME280;74045;42.812;74.638;2023-11-21T06:44:33;90771.50;;;15.04;47.29
83896;BME280;74045;42.812;74.638;2023-11-21T06:47:00;90812.72;;;15.40;46.96
83896;BME280;74045;42.812;74.638;2023-11-21T06:49:26;90823.75;;;15.60;46.64
83896;BME280;74045;42.812;74.638;2023-11-21T06:51:52;90815.91;;;15.66;46.60
83896;BME280;74045;42.812;74.638;2023-11-21T06:54:19;90819.66;;;15.78;46.60
83896;BME280;74045;42.812;74.638;2023-11-21T06:56:46;90694.00;;;14.93;46.42
83896;BME280;74045;42.812;74.638;2023-11-21T06:59:12;90815.97;;;15.84;46.02
83896;BME280;74045;42.812;74.638;2023-11-21T07:01:38;90829.44;;;15.90;45.96
83896;BME280;74045;42.812;74.638;2023-11-21T07:04:06;90789.94;;;15.88;46.61
83896;BME280;74045;42.812;74.638;2023-11-21T07:06:32;90802.25;;;16.04;47.02
83896;BME280;74045;42.812;74.638;2023-11-21T07:08:58;90742.44;;;15.69;46.58
83896;BME280;74045;42.812;74.638;2023-11-21T07:11:24;90788.03;;;16.07;46.48
83896;BME280;74045;42.812;74.638;2023-11-21T07:13:50;90791.00;;;16.09;47.26
83896;BME280;74045;42.812;74.638;2023-11-21T07:16:17;90782.72;;;16.17;47.18
83896;BME280;74045;42.812;74.638;2023-11-21T07:18:44;90790.00;;;16.16;46.95
83896;BME280;74045;42.812;74.638;2023-11-21T07:21:10;90787.16;;;16.20;47.05
83896;BME280;74045;42.812;74.638;2023-11-21T07:23:38;90784.50;;;16.20;46.81
83896;BME280;74045;42.812;74.638;2023-11-21T07:26:04;90791.59;;;16.23;47.04
83896;BME280;74045;42.812;74.638;2023-11-21T07:28:34;90749.84;;;16.01;46.72
83896;BME280;74045;42.812;74.638;2023-11-21T07:31:01;90778.28;;;16.23;46.50
83896;BME280;74045;42.812;74.638;2023-11-21T07:33:27;90765.38;;;16.21;46.31
83896;BME280;74045;42.812;74.638;2023-11-21T07:35:53;90770.00;;;16.39;45.79
83896;BME280;74045;42.812;74.638;2023-11-21T07:38:18;90767.16;;;16.43;44.86
83896;BME280;74045;42.812;74.638;2023-11-21T07:40:44;90696.00;;;15.97;45.24
83896;BME280;74045;42.812;74.638;2023-11-21T07:43:09;90772.34;;;16.46;45.51
83896;BME280;74045;42.812;74.638;2023-11-21T07:45:36;90770.28;;;16.41;45.78
83896;BME280;74045;42.812;74.638;2023-11-21T07:48:02;90766.13;;;16.49;43.70
83896;BME280;74045;42.812;74.638;2023-11-21T07:50:29;90760.94;;;16.46;44.45
83896;BME280;74045;42.812;74.638;2023-11-21T07:52:55;90762.59;;;16.52;45.92
83896;BME280;74045;42.812;74.638;2023-11-21T07:55:21;90762.56;;;16.62;46.08
83896;BME280;74045;42.812;74.638;2023-11-21T07:57:46;90756.94;;;16.60;48.89
83896;BME280;74045;42.812;74.638;2023-11-21T08:00:12;90755.59;;;16.64;50.19
83896;BME280;74045;42.812;74.638;2023-11-21T08:02:41;90750.41;;;16.61;51.33
83896;BME280;74045;42.812;74.638;2023-11-21T08:05:08;90757.53;;;16.64;50.89
83896;BME280;74045;42.812;74.638;2023-11-21T08:07:34;90748.94;;;16.60;50.97
83896;BME280;74045;42.812;74.638;2023-11-21T08:10:00;90742.13;;;16.49;50.97
83896;BME280;74045;42.812;74.638;2023-11-21T08:12:26;90743.91;;;16.52;51.64
83896;BME280;74045;42.812;74.638;2023-11-21T08:14:53;90750.41;;;16.51;51.98
83896;BME280;74045;42.812;74.638;2023-11-21T08:17:19;90745.53;;;16.50;51.87
83896;BME280;74045;42.812;74.638;2023-11-21T08:19:45;90737.25;;;16.48;51.97
83896;BME280;74045;42.812;74.638;2023-11-21T08:22:15;90746.28;;;16.50;52.33
83896;BME280;74045;42.812;74.638;2023-11-21T08:24:43;90745.41;;;16.44;52.45
83896;BME280;74045;42.812;74.638;2023-11-21T08:27:09;90732.97;;;16.32;52.33
83896;BME280;74045;42.812;74.638;2023-11-21T08:29:35;90744.81;;;16.40;52.65
83896;BME280;74045;42.812;74.638;2023-11-21T08:32:04;90752.22;;;16.36;52.47
83896;BME280;74045;42.812;74.638;2023-11-21T08:34:30;90743.03;;;16.37;52.30
83896;BME280;74045;42.812;74.638;2023-11-21T08:36:56;90740.81;;;16.36;52.56
83896;BME280;74045;42.812;74.638;2023-11-21T08:39:22;90744.66;;;16.34;52.63
83896;BME280;74045;42.812;74.638;2023-11-21T08:41:50;90725.00;;;16.14;52.55
83896;BME280;74045;42.812;74.638;2023-11-21T08:44:16;90663.13;;;15.82;52.69
83896;BME280;74045;42.812;74.638;2023-11-21T08:46:44;90723.50;;;16.31;52.38
83896;BME280;74045;42.812;74.638;2023-11-21T08:49:12;90706.50;;;16.19;52.25
83896;BME280;74045;42.812;74.638;2023-11-21T08:51:39;90724.84;;;16.36;51.93
83896;BME280;74045;42.812;74.638;2023-11-21T08:54:05;90723.34;;;16.34;51.80
83896;BME280;74045;42.812;74.638;2023-11-21T08:56:34;90711.63;;;16.32;51.80
83896;BME280;74045;42.812;74.638;2023-11-21T08:59:00;90716.53;;;16.33;51.92
83896;BME280;74045;42.812;74.638;2023-11-21T09:01:28;90711.94;;;16.34;51.98
83896;BME280;74045;42.812;74.638;2023-11-21T09:03:54;90713.41;;;16.35;52.12
83896;BME280;74045;42.812;74.638;2023-11-21T09:06:19;90657.81;;;15.91;52.79
83896;BME280;74045;42.812;74.638;2023-11-21T09:08:45;90711.94;;;16.34;53.09
83896;BME280;74045;42.812;74.638;2023-11-21T09:11:11;90700.69;;;16.21;53.96
83896;BME280;74045;42.812;74.638;2023-11-21T09:13:36;90702.03;;;16.25;53.72
83896;BME280;74045;42.812;74.638;2023-11-21T09:16:03;90714.63;;;16.25;53.90
83896;BME280;74045;42.812;74.638;2023-11-21T09:18:28;90713.88;;;16.15;53.81
83896;BME280;74045;42.812;74.638;2023-11-21T09:20:54;90718.47;;;16.05;54.20
83896;BME280;74045;42.812;74.638;2023-11-21T09:23:20;90687.41;;;15.84;54.45
83896;BME280;74045;42.812;74.638;2023-11-21T09:25:46;90719.06;;;15.91;55.44
83896;BME280;74045;42.812;74.638;2023-11-21T09:28:13;90706.19;;;15.80;55.77
83896;BME280;74045;42.812;74.638;2023-11-21T09:30:39;90719.19;;;15.78;56.38
83896;BME280;74045;42.812;74.638;2023-11-21T09:33:04;90711.06;;;15.73;57.12
83896;BME280;74045;42.812;74.638;2023-11-21T09:35:38;90701.13;;;15.64;57.79
83896;BME280;74045;42.812;74.638;2023-11-21T09:38:04;90615.38;;;14.83;58.46
83896;BME280;74045;42.812;74.638;2023-11-21T09:40:37;90699.28;;;15.33;58.27
83896;BME280;74045;42.812;74.638;2023-11-21T09:43:16;90693.38;;;15.29;59.06
83896;BME280;74045;42.812;74.638;2023-11-21T09:45:59;90697.50;;;15.30;58.75
83896;BME280;74045;42.812;74.638;2023-11-21T09:48:26;90700.28;;;15.17;58.86
83896;BME280;74045;42.812;74.638;2023-11-21T09:50:53;90689.78;;;15.14;59.41
83896;BME280;74045;42.812;74.638;2023-11-21T09:53:22;90695.25;;;15.10;59.21
83896;BME280;74045;42.812;74.638;2023-11-21T09:55:52;90690.91;;;14.94;59.68
83896;BME280;74045;42.812;74.638;2023-11-21T09:58:19;90672.34;;;14.72;59.72
83896;BME280;74045;42.812;74.638;2023-11-21T10:00:47;90698.38;;;14.77;60.07
83896;BME280;74045;42.812;74.638;2023-11-21T10:03:13;90633.91;;;14.33;60.23
83896;BME280;74045;42.812;74.638;2023-11-21T10:05:41;90688.88;;;14.67;60.65
83896;BME280;74045;42.812;74.638;2023-11-21T10:08:08;90691.66;;;14.64;60.82
83896;BME280;74045;42.812;74.638;2023-11-21T10:10:36;90604.31;;;13.91;61.09
83896;BME280;74045;42.812;74.638;2023-11-21T10:13:06;90694.81;;;14.49;61.24
83896;BME280;74045;42.812;74.638;2023-11-21T10:15:36;90697.63;;;14.46;61.31
83896;BME280;74045;42.812;74.638;2023-11-21T10:18:07;90698.50;;;14.43;60.90
83896;BME280;74045;42.812;74.638;2023-11-21T10:20:33;90693.09;;;14.33;60.99
83896;BME280;74045;42.812;74.638;2023-11-21T10:23:00;90705.66;;;14.33;61.22
83896;BME280;74045;42.812;74.638;2023-11-21T10:25:29;90694.06;;;14.18;61.39
83896;BME280;74045;42.812;74.638;2023-11-21T10:27:58;90696.25;;;14.19;61.49
83896;BME280;74045;42.812;74.638;2023-11-21T10:30:37;90684.03;;;14.00;61.79
83896;BME280;74045;42.812;74.638;2023-11-21T10:33:07;90704.31;;;14.06;61.45
83896;BME280;74045;42.812;74.638;2023-11-21T10:35:43;90697.88;;;13.95;61.16
83896;BME280;74045;42.812;74.638;2023-11-21T10:38:13;90697.56;;;13.93;61.52
83896;BME280;74045;42.812;74.638;2023-11-21T10:40:40;90700.13;;;13.83;61.43
83896;BME280;74045;42.812;74.638;2023-11-21T10:43:10;90703.78;;;13.77;61.38
83896;BME280;74045;42.812;74.638;2023-11-21T10:45:39;90702.13;;;13.70;61.37
83896;BME280;74045;42.812;74.638;2023-11-21T10:48:06;90616.94;;;13.08;61.44
83896;BME280;74045;42.812;74.638;2023-11-21T10:50:37;90688.56;;;13.55;61.90
83896;BME280;74045;42.812;74.638;2023-11-21T10:53:04;90691.34;;;13.52;62.02
83896;BME280;74045;42.812;74.638;2023-11-21T10:55:31;90691.25;;;13.42;62.17
83896;BME280;74045;42.812;74.638;2023-11-21T10:58:01;90621.63;;;12.91;62.59
83896;BME280;74045;42.812;74.638;2023-11-21T11:00:28;90674.19;;;13.18;63.39
83896;BME280;74045;42.812;74.638;2023-11-21T11:02:55;90688.53;;;13.20;63.83
83896;BME280;74045;42.812;74.638;2023-11-21T11:05:23;90604.22;;;12.55;63.82
83896;BME280;74045;42.812;74.638;2023-11-21T11:08:12;90684.09;;;13.05;63.41
83896;BME280;74045;42.812;74.638;2023-11-21T11:10:45;90680.41;;;12.89;64.53
83896;BME280;74045;42.812;74.638;2023-11-21T11:13:13;90685.16;;;12.82;64.31
83896;BME280;74045;42.812;74.638;2023-11-21T11:15:41;90689.94;;;12.74;64.74
83896;BME280;74045;42.812;74.638;2023-11-21T11:18:07;90696.59;;;12.66;64.65
83896;BME280;74045;42.812;74.638;2023-11-21T11:20:37;90695.34;;;12.58;64.81
83896;BME280;74045;42.812;74.638;2023-11-21T11:23:46;90689.19;;;12.48;64.51
83896;BME280;74045;42.812;74.638;2023-11-21T11:35:26;90686.25;;;12.04;65.31
83896;BME280;74045;42.812;74.638;2023-11-21T11:37:43;90677.47;;;11.78;66.43
83896;BME280;74045;42.812;74.638;2023-11-21T11:40:11;90686.88;;;11.79;66.87
83896;BME280;74045;42.812;74.638;2023-11-21T11:42:37;90682.41;;;11.63;67.00
83896;BME280;74045;42.812;74.638;2023-11-21T11:45:17;90690.00;;;11.61;66.82
83896;BME280;74045;42.812;74.638;2023-11-21T11:47:43;90689.19;;;11.48;67.39
83896;BME280;74045;42.812;74.638;2023-11-21T11:50:11;90692.44;;;11.39;67.44
83896;BME280;74045;42.812;74.638;2023-11-21T11:52:48;90688.97;;;11.26;67.73
83896;BME280;74045;42.812;74.638;2023-11-21T11:55:17;90692.78;;;11.25;68.06
83896;BME280;74045;42.812;74.638;2023-11-21T11:57:45;90707.34;;;11.16;67.97
83896;BME280;74045;42.812;74.638;2023-11-21T12:00:16;90717.66;;;11.11;67.90
83896;BME280;74045;42.812;74.638;2023-11-21T12:02:46;90702.28;;;11.06;67.88
83896;BME280;74045;42.812;74.638;2023-11-21T12:05:17;90609.91;;;10.37;68.29
83896;BME280;74045;42.812;74.638;2023-11-21T12:07:51;90707.09;;;10.94;68.25
83896;BME280;74045;42.812;74.638;2023-11-21T12:10:22;90708.50;;;10.83;68.63
83896;BME280;74045;42.812;74.638;2023-11-21T12:12:52;90707.75;;;10.82;68.55
83896;BME280;74045;42.812;74.638;2023-11-21T12:15:18;90710.28;;;10.69;68.85
83896;BME280;74045;42.812;74.638;2023-11-21T12:17:45;90687.16;;;10.57;68.80
83896;BME280;74045;42.812;74.638;2023-11-21T12:20:13;90708.72;;;10.72;69.06
83896;BME280;74045;42.812;74.638;2023-11-21T12:22:49;90618.00;;;10.09;68.87
83896;BME280;74045;42.812;74.638;2023-11-21T12:25:16;90703.63;;;10.65;69.13
83896;BME280;74045;42.812;74.638;2023-11-21T12:27:44;90726.97;;;10.66;69.45
83896;BME280;74045;42.812;74.638;2023-11-21T12:30:11;90724.00;;;10.64;69.85
83896;BME280;74045;42.812;74.638;2023-11-21T12:32:41;90724.47;;;10.59;69.77
83896;BME280;74045;42.812;74.638;2023-11-21T12:35:09;90708.13;;;10.48;70.00
83896;BME280;74045;42.812;74.638;2023-11-21T12:37:39;90697.59;;;10.28;70.21
83896;BME280;74045;42.812;74.638;2023-11-21T12:40:06;90724.97;;;10.54;70.41
83896;BME280;74045;42.812;74.638;2023-11-21T12:42:34;90720.84;;;10.53;70.43
83896;BME280;74045;42.812;74.638;2023-11-21T12:45:27;90726.44;;;10.55;70.06
83896;BME280;74045;42.812;74.638;2023-11-21T12:48:01;90731.81;;;10.51;70.77
83896;BME280;74045;42.812;74.638;2023-11-21T12:50:30;90719.81;;;10.47;71.50
83896;BME280;74045;42.812;74.638;2023-11-21T12:53:04;90732.53;;;10.52;71.45
83896;BME280;74045;42.812;74.638;2023-11-21T12:55:33;90728.81;;;10.49;71.33
83896;BME280;74045;42.812;74.638;2023-11-21T12:58:03;90734.94;;;10.46;71.35
83896;BME280;74045;42.812;74.638;2023-11-21T13:00:35;90731.16;;;10.47;71.97
83896;BME280;74045;42.812;74.638;2023-11-21T13:03:06;90644.91;;;9.84;71.70